Buckhorn, New Mexico
Current Conditions -  °F | °C
As of 1:35 AM on Sunday 21 Dec 2014 (Local Time) from KSVC Reporting Station
Clear Clear  
Wind Chill: 28°   Ceiling: Unl
Heat Index: 36°   Visibility: 10mi
Dew Point: 30°   Wind: 10mph
Humidity: 81%   Direction: 310°NW
Pressure: 30.12"   Gusts: NA
Location:  33.03°N, 108.71°W
Report Text: KSVC 210835Z AUTO 31009KT 10SM CLR 02/M01 A3012 RMK AO2
Loading
Personal Weather Stations






























Interactive Weather Map New forecast layout! Learn more

10-Day Weather Forecast

Advertisements
Track Severe Weather on mobile